createdAt,value
2022-11-01T05:00:36.537Z,0.00
2022-11-01T05:01:36.538Z,0.00
2022-11-01T05:02:36.401Z,0.00
2022-11-01T05:03:36.401Z,0.00
2022-11-01T05:04:36.379Z,0.00
2022-11-01T05:05:36.361Z,0.00
2022-11-01T05:06:36.348Z,0.00
2022-11-01T05:07:36.343Z,0.00
2022-11-01T05:08:36.349Z,0.00
2022-11-01T05:09:36.327Z,0.00
2022-11-01T05:10:36.311Z,0.00
2022-11-01T05:11:41.322Z,0.00
2022-11-01T05:12:36.282Z,0.00
2022-11-01T05:13:36.285Z,0.00
2022-11-01T05:14:36.262Z,0.00
2022-11-01T05:15:40.026Z,0.00
2022-11-01T05:16:37.256Z,0.00
2022-11-01T05:17:36.228Z,0.00
2022-11-01T05:18:36.237Z,0.00
2022-11-01T05:19:36.218Z,0.00
2022-11-01T05:20:36.197Z,0.00
2022-11-01T05:21:36.189Z,0.00
2022-11-01T05:22:41.192Z,0.00
2022-11-01T05:23:36.169Z,0.00
2022-11-01T05:24:36.190Z,0.00
2022-11-01T05:25:38.145Z,0.00
2022-11-01T05:26:36.124Z,0.00
2022-11-01T05:27:36.122Z,0.00
2022-11-01T05:28:36.112Z,0.00
2022-11-01T05:29:36.095Z,0.00
2022-11-01T05:30:36.079Z,0.00
2022-11-01T05:31:36.074Z,0.00
2022-11-01T05:32:36.080Z,0.00
2022-11-01T05:33:41.080Z,0.00
2022-11-01T05:34:36.033Z,0.00
2022-11-01T05:35:36.025Z,0.00
2022-11-01T05:36:36.011Z,0.00
2022-11-01T05:37:36.000Z,0.00
2022-11-01T05:38:35.999Z,0.00
2022-11-01T05:39:35.987Z,0.00
2022-11-01T05:40:35.967Z,0.00
2022-11-01T05:41:35.955Z,0.00
2022-11-01T05:42:35.943Z,0.00
2022-11-01T05:43:35.940Z,0.00
2022-11-01T05:44:40.940Z,0.00
2022-11-01T05:45:35.914Z,0.00
2022-11-01T05:46:35.895Z,0.00
2022-11-01T05:47:35.932Z,0.00
2022-11-01T05:48:35.901Z,0.00
2022-11-01T05:49:35.863Z,0.00
2022-11-01T05:50:35.852Z,0.00
2022-11-01T05:51:35.843Z,0.00
2022-11-01T05:52:35.831Z,0.00
2022-11-01T05:53:35.830Z,0.00
2022-11-01T05:54:35.805Z,0.00
2022-11-01T05:55:40.817Z,4.00
2022-11-01T05:56:35.785Z,0.00
2022-11-01T05:57:35.824Z,4.00
2022-11-01T05:58:35.772Z,4.00
2022-11-01T05:59:35.767Z,4.00
2022-11-01T06:00:35.739Z,4.00
2022-11-01T06:01:35.826Z,8.00
2022-11-01T06:02:35.781Z,4.00
2022-11-01T06:03:35.712Z,8.00
2022-11-01T06:04:35.721Z,8.00
2022-11-01T06:05:35.682Z,8.00
2022-11-01T06:06:40.696Z,4.00
2022-11-01T06:07:35.660Z,12.00
2022-11-01T06:08:35.659Z,16.00
2022-11-01T06:09:35.642Z,16.00
2022-11-01T06:10:35.630Z,12.00
2022-11-01T06:11:40.580Z,8.00
2022-11-01T06:12:36.602Z,8.00
2022-11-01T06:13:35.599Z,12.00
2022-11-01T06:15:38.730Z,16.00
2022-11-01T06:16:35.557Z,12.00
2022-11-01T06:17:40.574Z,20.00
2022-11-01T06:18:35.551Z,20.00
2022-11-01T06:19:35.524Z,24.00
2022-11-01T06:20:35.574Z,24.00
2022-11-01T06:21:35.498Z,32.00
2022-11-01T06:22:35.489Z,44.00
2022-11-01T06:23:35.490Z,56.00
2022-11-01T06:24:35.468Z,56.00
2022-11-01T06:25:35.459Z,60.00
2022-11-01T06:26:35.465Z,76.00
2022-11-01T06:27:35.432Z,76.00
2022-11-01T06:28:40.452Z,80.00
2022-11-01T06:29:35.409Z,80.00
2022-11-01T06:30:35.405Z,80.00
2022-11-01T06:31:35.389Z,76.00
2022-11-01T06:32:35.379Z,80.00
2022-11-01T06:33:35.375Z,84.00
2022-11-01T06:34:35.355Z,100.00
2022-11-01T06:35:35.353Z,112.00
2022-11-01T06:36:35.350Z,120.00
2022-11-01T06:37:35.323Z,116.00
2022-11-01T06:38:35.332Z,124.00
2022-11-01T06:39:40.319Z,128.00
2022-11-01T06:40:35.285Z,132.00
2022-11-01T06:41:35.274Z,136.00
2022-11-01T06:42:35.267Z,148.00
2022-11-01T06:43:35.267Z,140.00
2022-11-01T06:44:35.248Z,144.00
2022-11-01T06:45:35.236Z,144.00
2022-11-01T06:46:35.221Z,128.00
2022-11-01T06:47:35.263Z,148.00
2022-11-01T06:48:35.208Z,208.00
2022-11-01T06:49:35.188Z,208.00
2022-11-01T06:50:40.197Z,208.00
2022-11-01T06:51:35.164Z,204.00
2022-11-01T06:52:35.170Z,204.00
2022-11-01T06:53:35.153Z,200.00
2022-11-01T06:54:35.144Z,204.00
2022-11-01T06:55:35.123Z,228.00
2022-11-01T06:56:35.109Z,244.00
2022-11-01T06:57:35.096Z,244.00
2022-11-01T06:58:35.124Z,248.00
2022-11-01T06:59:35.081Z,264.00
2022-11-01T07:00:35.091Z,284.00
2022-11-01T07:01:40.236Z,296.00
2022-11-01T07:02:35.218Z,304.00
2022-11-01T07:03:35.044Z,312.00
2022-11-01T07:04:35.022Z,320.00
2022-11-01T07:05:37.154Z,312.00
2022-11-01T07:06:34.998Z,312.00
2022-11-01T07:07:34.979Z,304.00
2022-11-01T07:08:36.212Z,300.00
2022-11-01T07:09:34.965Z,292.00
2022-11-01T07:10:34.953Z,296.00
2022-11-01T07:11:35.027Z,324.00
2022-11-01T07:12:39.958Z,348.00
2022-11-01T07:13:34.931Z,384.00
2022-11-01T07:14:34.920Z,420.00
2022-11-01T07:15:34.898Z,436.00
2022-11-01T07:16:34.879Z,472.00
2022-11-01T07:17:34.868Z,496.00
2022-11-01T07:18:34.869Z,520.00
2022-11-01T07:19:34.846Z,544.00
2022-11-01T07:20:34.880Z,552.00
2022-11-01T07:21:34.850Z,552.00
2022-11-01T07:22:34.822Z,556.00
2022-11-01T07:23:39.856Z,560.00
2022-11-01T07:24:34.791Z,572.00
2022-11-01T07:25:34.787Z,560.00
2022-11-01T07:26:34.793Z,544.00
2022-11-01T07:27:34.784Z,528.00
2022-11-01T07:28:34.824Z,504.00
2022-11-01T07:29:34.735Z,488.00
2022-11-01T07:30:34.727Z,484.00
2022-11-01T07:31:34.711Z,492.00
2022-11-01T07:32:39.727Z,504.00
2022-11-01T07:33:35.725Z,524.00
2022-11-01T07:34:39.701Z,552.00
2022-11-01T07:35:34.669Z,620.00
2022-11-01T07:36:34.657Z,704.00
2022-11-01T07:37:34.644Z,792.00
2022-11-01T07:38:34.649Z,876.00
2022-11-01T07:39:34.650Z,928.00
2022-11-01T07:40:34.619Z,940.00
2022-11-01T07:41:34.602Z,976.00
2022-11-01T07:42:34.597Z,968.00
2022-11-01T07:43:34.591Z,972.00
2022-11-01T07:44:34.569Z,1004.00
2022-11-01T07:45:39.576Z,1052.00
2022-11-01T07:46:34.636Z,1108.00
2022-11-01T07:47:34.543Z,1168.00
2022-11-01T07:48:34.595Z,1212.00
2022-11-01T07:49:34.511Z,1260.00
2022-11-01T07:50:34.503Z,1284.00
2022-11-01T07:51:34.493Z,1292.00
2022-11-01T07:52:34.492Z,1324.00
2022-11-01T07:53:34.482Z,1332.00
2022-11-01T07:54:34.470Z,1328.00
2022-11-01T07:55:34.459Z,1316.00
2022-11-01T07:56:39.462Z,1316.00
2022-11-01T07:57:34.420Z,1312.00
2022-11-01T07:58:34.412Z,1280.00
2022-11-01T07:59:34.418Z,1296.00
2022-11-01T08:01:34.463Z,1292.00
2022-11-01T08:02:34.446Z,1336.00
2022-11-01T08:03:34.355Z,1364.00
2022-11-01T08:04:34.361Z,1412.00
2022-11-01T08:05:34.335Z,1456.00
2022-11-01T08:06:34.321Z,1484.00
2022-11-01T08:07:39.339Z,1544.00
2022-11-01T08:08:34.304Z,1572.00
2022-11-01T08:09:34.300Z,1604.00
2022-11-01T08:10:34.300Z,1616.00
2022-11-01T08:11:34.288Z,1596.00
2022-11-01T08:12:34.259Z,1608.00
2022-11-01T08:13:34.255Z,1588.00
2022-11-01T08:14:34.253Z,1584.00
2022-11-01T08:15:34.218Z,1596.00
2022-11-01T08:16:34.219Z,1628.00
2022-11-01T08:17:34.197Z,1652.00
2022-11-01T08:18:39.213Z,1700.00
2022-11-01T08:19:34.198Z,1748.00
2022-11-01T08:20:34.228Z,1832.00
2022-11-01T08:21:34.159Z,1824.00
2022-11-01T08:22:34.192Z,1832.00
2022-11-01T08:23:34.131Z,1764.00
2022-11-01T08:24:34.132Z,1760.00
2022-11-01T08:25:34.113Z,1796.00
2022-11-01T08:26:34.104Z,1820.00
2022-11-01T08:27:35.364Z,1828.00
2022-11-01T08:28:34.076Z,1856.00
2022-11-01T08:29:39.103Z,1872.00
2022-11-01T08:30:34.053Z,1840.00
2022-11-01T08:31:34.050Z,1768.00
2022-11-01T08:32:34.033Z,1756.00
2022-11-01T08:33:34.024Z,1704.00
2022-11-01T08:34:34.021Z,1636.00
2022-11-01T08:35:34.013Z,1632.00
2022-11-01T08:36:33.988Z,1712.00
2022-11-01T08:37:34.001Z,1828.00
2022-11-01T08:38:33.964Z,1776.00
2022-11-01T08:39:33.963Z,1576.00
2022-11-01T08:40:38.962Z,1420.00
2022-11-01T08:41:37.184Z,1348.00
2022-11-01T08:42:33.930Z,1304.00
2022-11-01T08:43:39.508Z,1272.00
2022-11-01T08:44:34.914Z,1256.00
2022-11-01T08:45:33.883Z,1384.00
2022-11-01T08:46:33.886Z,1592.00
2022-11-01T08:47:33.866Z,1688.00
2022-11-01T08:48:33.850Z,1700.00
2022-11-01T08:49:33.848Z,1668.00
2022-11-01T08:50:33.833Z,1680.00
2022-11-01T08:51:38.838Z,1664.00
2022-11-01T08:52:33.812Z,1544.00
2022-11-01T08:53:33.819Z,1356.00
2022-11-01T08:54:33.814Z,1360.00
2022-11-01T08:55:37.595Z,1348.00
2022-11-01T08:56:33.762Z,1200.00
2022-11-01T08:57:33.757Z,1232.00
2022-11-01T08:58:33.738Z,1256.00
2022-11-01T08:59:33.762Z,1316.00
2022-11-01T09:00:33.718Z,1412.00
2022-11-01T09:01:33.847Z,1552.00
2022-11-01T09:02:38.805Z,1596.00
2022-11-01T09:03:33.680Z,1460.00
2022-11-01T09:04:33.685Z,1260.00
2022-11-01T09:05:33.659Z,1076.00
2022-11-01T09:06:36.261Z,816.00
2022-11-01T09:07:33.639Z,888.00
2022-11-01T09:08:33.707Z,1208.00
2022-11-01T09:09:33.645Z,1276.00
2022-11-01T09:10:33.644Z,1048.00
2022-11-01T09:11:33.596Z,440.00
2022-11-01T09:12:33.649Z,556.00
2022-11-01T09:13:38.591Z,1096.00
2022-11-01T09:14:33.570Z,1648.00
2022-11-01T09:15:33.572Z,1908.00
2022-11-01T09:16:33.539Z,1864.00
2022-11-01T09:17:33.525Z,1692.00
2022-11-01T09:18:33.520Z,1416.00
2022-11-01T09:19:33.517Z,1488.00
2022-11-01T09:20:33.496Z,1644.00
2022-11-01T09:21:33.496Z,1652.00
2022-11-01T09:22:33.476Z,1604.00
2022-11-01T09:23:33.461Z,1656.00
2022-11-01T09:24:38.489Z,1704.00
2022-11-01T09:25:33.437Z,1788.00
2022-11-01T09:26:33.430Z,1980.00
2022-11-01T09:27:33.419Z,1972.00
2022-11-01T09:28:34.069Z,2184.00
2022-11-01T09:30:33.379Z,3164.00
2022-11-01T09:31:33.389Z,3484.00
2022-11-01T09:32:33.391Z,3292.00
2022-11-01T09:33:33.350Z,3176.00
2022-11-01T09:34:33.350Z,3252.00
2022-11-01T09:35:38.344Z,3500.00
2022-11-01T09:36:33.316Z,3212.00
2022-11-01T09:37:33.305Z,3572.00
2022-11-01T09:38:33.294Z,3316.00
2022-11-01T09:39:33.327Z,3008.00
2022-11-01T09:40:33.350Z,3016.00
2022-11-01T09:41:33.361Z,3068.00
2022-11-01T09:42:33.252Z,3664.00
2022-11-01T09:43:33.236Z,3312.00
2022-11-01T09:44:33.239Z,3580.00
2022-11-01T09:45:33.212Z,3592.00
2022-11-01T09:46:38.252Z,3200.00
2022-11-01T09:47:33.192Z,2816.00
2022-11-01T09:48:33.189Z,2592.00
2022-11-01T09:49:33.180Z,2668.00
2022-11-01T09:50:33.158Z,2552.00
2022-11-01T09:51:33.147Z,2492.00
2022-11-01T09:52:33.136Z,2040.00
2022-11-01T09:53:33.127Z,2016.00
2022-11-01T09:54:33.134Z,928.00
2022-11-01T09:55:33.103Z,1956.00
2022-11-01T09:56:33.092Z,2336.00
2022-11-01T09:57:38.104Z,2012.00
2022-11-01T09:58:33.070Z,1864.00
2022-11-01T09:59:33.075Z,2348.00
2022-11-01T10:00:33.048Z,2544.00
2022-11-01T10:01:33.182Z,3060.00
2022-11-01T10:02:33.044Z,3032.00
2022-11-01T10:03:33.012Z,3188.00
2022-11-01T10:04:33.017Z,3432.00
2022-11-01T10:05:33.000Z,3180.00
2022-11-01T10:06:32.991Z,2800.00
2022-11-01T10:07:32.968Z,3144.00
2022-11-01T10:08:37.980Z,3700.00
2022-11-01T10:09:32.965Z,3264.00
2022-11-01T10:10:35.744Z,3196.00
2022-11-01T10:11:32.925Z,3124.00
2022-11-01T10:12:32.925Z,3144.00
2022-11-01T10:13:32.904Z,3112.00
2022-11-01T10:14:32.908Z,3004.00
2022-11-01T10:15:32.885Z,3112.00
2022-11-01T10:16:32.894Z,3076.00
2022-11-01T10:17:32.862Z,3200.00
2022-11-01T10:18:32.979Z,3232.00
2022-11-01T10:19:38.513Z,3160.00
2022-11-01T10:20:32.844Z,3112.00
2022-11-01T10:21:32.950Z,3056.00
2022-11-01T10:22:32.808Z,3080.00
2022-11-01T10:23:32.810Z,3060.00
2022-11-01T10:24:32.925Z,3156.00
2022-11-01T10:25:32.800Z,3236.00
2022-11-01T10:26:32.824Z,3432.00
2022-11-01T10:27:36.253Z,3228.00
2022-11-01T10:28:32.738Z,3268.00
2022-11-01T10:29:32.727Z,3292.00
2022-11-01T10:30:37.746Z,3104.00
2022-11-01T10:31:32.724Z,2900.00
2022-11-01T10:32:32.955Z,2700.00
2022-11-01T10:33:32.709Z,2536.00
2022-11-01T10:34:36.146Z,2368.00
2022-11-01T10:35:32.730Z,2356.00
2022-11-01T10:36:32.806Z,2232.00
2022-11-01T10:37:32.644Z,2032.00
2022-11-01T10:38:59.205Z,1828.00
2022-11-01T10:39:54.719Z,2000.00
2022-11-01T10:40:33.612Z,2432.00
2022-11-01T10:41:37.619Z,2696.00
2022-11-01T10:42:32.586Z,2792.00
2022-11-01T10:43:32.581Z,2496.00
2022-11-01T10:44:32.610Z,2572.00
2022-11-01T10:45:32.695Z,2328.00
2022-11-01T10:46:32.536Z,1852.00
2022-11-01T10:47:32.528Z,1628.00
2022-11-01T10:48:32.529Z,1564.00
2022-11-01T10:49:52.998Z,1588.00
2022-11-01T10:50:33.525Z,1688.00
2022-11-01T10:51:32.487Z,1608.00
2022-11-01T10:52:37.491Z,1536.00
2022-11-01T10:53:32.898Z,1424.00
2022-11-01T10:54:32.881Z,1264.00
2022-11-01T10:55:32.455Z,1456.00
2022-11-01T10:56:32.462Z,1416.00
2022-11-01T10:57:32.413Z,1548.00
2022-11-01T10:58:32.429Z,1612.00
2022-11-01T10:59:32.399Z,1640.00
2022-11-01T11:00:32.392Z,1620.00
2022-11-01T11:01:32.563Z,1724.00
2022-11-01T11:02:32.402Z,1876.00
2022-11-01T11:03:37.373Z,1916.00
2022-11-01T11:04:32.338Z,1828.00
2022-11-01T11:05:32.336Z,1744.00
2022-11-01T11:06:32.348Z,1844.00
2022-11-01T11:07:32.303Z,1652.00
2022-11-01T11:08:32.303Z,2172.00
2022-11-01T11:09:32.291Z,2000.00
2022-11-01T11:10:32.275Z,1704.00
2022-11-01T11:11:32.260Z,1592.00
2022-11-01T11:12:32.248Z,1532.00
2022-11-01T11:13:32.238Z,1508.00
2022-11-01T11:14:37.259Z,1516.00
2022-11-01T11:15:35.464Z,1464.00
2022-11-01T11:16:32.210Z,1440.00
2022-11-01T11:17:32.235Z,1384.00
2022-11-01T11:18:32.179Z,1400.00
2022-11-01T11:19:32.170Z,1420.00
2022-11-01T11:20:32.163Z,1420.00
2022-11-01T11:21:32.164Z,1516.00
2022-11-01T11:22:32.154Z,1800.00
2022-11-01T11:23:32.136Z,1816.00
2022-11-01T11:24:32.112Z,1572.00
2022-11-01T11:25:37.151Z,1860.00
2022-11-01T11:26:37.512Z,1512.00
2022-11-01T11:27:33.079Z,1468.00
2022-11-01T11:28:32.069Z,1432.00
2022-11-01T11:29:32.074Z,1492.00
2022-11-01T11:30:32.053Z,1484.00
2022-11-01T11:31:32.043Z,1492.00
2022-11-01T11:32:32.024Z,1476.00
2022-11-01T11:33:32.013Z,1480.00
2022-11-01T11:34:32.013Z,1860.00
2022-11-01T11:35:31.990Z,1880.00
2022-11-01T11:36:37.106Z,1968.00
2022-11-01T11:37:31.968Z,2064.00
2022-11-01T11:38:31.983Z,1928.00
2022-11-01T11:39:31.963Z,2296.00
2022-11-01T11:40:31.933Z,1648.00
2022-11-01T11:41:31.933Z,1884.00
2022-11-01T11:42:31.910Z,1788.00
2022-11-01T11:43:31.902Z,1672.00
2022-11-01T11:44:31.894Z,1948.00
2022-11-01T11:45:31.879Z,1780.00
2022-11-01T11:46:31.887Z,1420.00
2022-11-01T11:47:36.878Z,1360.00
2022-11-01T11:48:31.844Z,1472.00
2022-11-01T11:49:31.838Z,1428.00
2022-11-01T11:50:31.826Z,1456.00
2022-11-01T11:51:31.833Z,1460.00
2022-11-01T11:52:35.439Z,1452.00
2022-11-01T11:53:32.799Z,1416.00
2022-11-01T11:54:31.794Z,1380.00
2022-11-01T11:55:31.773Z,1412.00
2022-11-01T11:56:31.762Z,1424.00
2022-11-01T11:57:31.743Z,1476.00
2022-11-01T11:58:36.751Z,1616.00
2022-11-01T11:59:31.722Z,1624.00
2022-11-01T12:00:31.710Z,1696.00
2022-11-01T12:01:31.833Z,1776.00
2022-11-01T12:02:31.797Z,1796.00
2022-11-01T12:03:31.677Z,1812.00
2022-11-01T12:04:31.665Z,1900.00
2022-11-01T12:05:31.654Z,1780.00
2022-11-01T12:06:31.651Z,1716.00
2022-11-01T12:07:31.644Z,1668.00
2022-11-01T12:08:31.617Z,1680.00
2022-11-01T12:09:36.645Z,1768.00
2022-11-01T12:10:31.599Z,1664.00
2022-11-01T12:11:31.606Z,1648.00
2022-11-01T12:12:31.573Z,1640.00
2022-11-01T12:13:31.560Z,1628.00
2022-11-01T12:14:31.549Z,1636.00
2022-11-01T12:15:34.409Z,1692.00
2022-11-01T12:16:32.552Z,1720.00
2022-11-01T12:17:31.542Z,1604.00
2022-11-01T12:18:31.518Z,1556.00
2022-11-01T12:19:31.492Z,1496.00
2022-11-01T12:20:36.505Z,1468.00
2022-11-01T12:21:31.480Z,1404.00
2022-11-01T12:22:31.459Z,1388.00
2022-11-01T12:23:31.449Z,1412.00
2022-11-01T12:24:31.437Z,1380.00
2022-11-01T12:25:31.472Z,1356.00
2022-11-01T12:26:31.424Z,1340.00
2022-11-01T12:27:31.403Z,1312.00
2022-11-01T12:28:31.394Z,1360.00
2022-11-01T12:29:31.383Z,1288.00
2022-11-01T12:30:31.367Z,1376.00
2022-11-01T12:31:36.441Z,1288.00
2022-11-01T12:32:31.348Z,1300.00
2022-11-01T12:33:31.336Z,1288.00
2022-11-01T12:34:31.352Z,1240.00
2022-11-01T12:35:31.316Z,1244.00
2022-11-01T12:36:31.327Z,1204.00
2022-11-01T12:37:31.289Z,1184.00
2022-11-01T12:38:31.279Z,1264.00
2022-11-01T12:39:31.271Z,1204.00
2022-11-01T12:40:31.256Z,1240.00
2022-11-01T12:41:31.274Z,1400.00
2022-11-01T12:42:36.253Z,1368.00
2022-11-01T12:43:31.224Z,1456.00
2022-11-01T12:44:31.245Z,1520.00
2022-11-01T12:45:31.213Z,1364.00
2022-11-01T12:46:31.187Z,1312.00
2022-11-01T12:47:31.179Z,1276.00
2022-11-01T12:48:31.235Z,1308.00
2022-11-01T12:49:31.158Z,1352.00
2022-11-01T12:50:31.157Z,1344.00
2022-11-01T12:51:31.170Z,1304.00
2022-11-01T12:52:31.119Z,1340.00
2022-11-01T12:53:36.133Z,1320.00
2022-11-01T12:54:31.096Z,1320.00
2022-11-01T12:55:31.107Z,1324.00
2022-11-01T12:56:31.080Z,1332.00
2022-11-01T12:57:31.085Z,1260.00
2022-11-01T12:58:35.317Z,1224.00
2022-11-01T12:59:32.047Z,1176.00
2022-11-01T13:00:31.051Z,1140.00
2022-11-01T13:01:31.127Z,1132.00
2022-11-01T13:02:31.006Z,1120.00
2022-11-01T13:03:30.997Z,1104.00
2022-11-01T13:04:36.007Z,1104.00
2022-11-01T13:05:30.986Z,1096.00
2022-11-01T13:06:30.971Z,1092.00
2022-11-01T13:07:30.954Z,1092.00
2022-11-01T13:08:30.947Z,1072.00
2022-11-01T13:09:30.930Z,1076.00
2022-11-01T13:10:30.960Z,1084.00
2022-11-01T13:11:30.919Z,1096.00
2022-11-01T13:12:30.899Z,1120.00
2022-11-01T13:13:30.901Z,1156.00
2022-11-01T13:14:30.881Z,1140.00
2022-11-01T13:15:35.891Z,1148.00
2022-11-01T13:16:30.858Z,1196.00
2022-11-01T13:17:30.839Z,1152.00
2022-11-01T13:18:30.826Z,1132.00
2022-11-01T13:19:30.815Z,1120.00
2022-11-01T13:20:30.802Z,1176.00
2022-11-01T13:21:30.809Z,1160.00
2022-11-01T13:22:30.779Z,1184.00
2022-11-01T13:23:30.778Z,1116.00
2022-11-01T13:24:30.758Z,1144.00
2022-11-01T13:25:30.748Z,1160.00
2022-11-01T13:26:35.765Z,1140.00
2022-11-01T13:27:30.726Z,1100.00
2022-11-01T13:28:30.713Z,1088.00
2022-11-01T13:29:30.724Z,1084.00
2022-11-01T13:30:30.689Z,1140.00
2022-11-01T13:31:30.705Z,1140.00
2022-11-01T13:32:30.666Z,1180.00
2022-11-01T13:33:30.657Z,1088.00
2022-11-01T13:34:30.661Z,1116.00
2022-11-01T13:35:30.639Z,1080.00
2022-11-01T13:36:31.355Z,1136.00
2022-11-01T13:37:35.633Z,1120.00
2022-11-01T13:38:30.602Z,1072.00
2022-11-01T13:39:30.588Z,1116.00
2022-11-01T13:40:30.588Z,1068.00
2022-11-01T13:41:30.577Z,1072.00
2022-11-01T13:42:30.588Z,1148.00
2022-11-01T13:43:30.543Z,1112.00
2022-11-01T13:44:30.554Z,1120.00
2022-11-01T13:45:30.567Z,1128.00
2022-11-01T13:46:30.527Z,1116.00
2022-11-01T13:47:30.498Z,1088.00
2022-11-01T13:48:35.506Z,1084.00
2022-11-01T13:49:30.480Z,1104.00
2022-11-01T13:50:30.464Z,1144.00
2022-11-01T13:51:30.464Z,1116.00
2022-11-01T13:52:30.440Z,1104.00
2022-11-01T13:53:30.436Z,1088.00
2022-11-01T13:54:30.422Z,1080.00
2022-11-01T13:55:30.411Z,1088.00
2022-11-01T13:56:30.411Z,1092.00
2022-11-01T13:57:30.385Z,1076.00
2022-11-01T13:58:30.373Z,1112.00
2022-11-01T13:59:35.384Z,1156.00
2022-11-01T14:00:30.350Z,848.00
2022-11-01T14:01:30.569Z,1104.00
2022-11-01T14:02:30.495Z,1064.00
2022-11-01T14:03:30.326Z,1056.00
2022-11-01T14:04:30.330Z,1012.00
2022-11-01T14:05:30.302Z,1312.00
2022-11-01T14:07:30.278Z,1124.00
2022-11-01T14:08:30.263Z,1460.00
2022-11-01T14:09:30.257Z,2000.00
2022-11-01T14:10:35.266Z,1684.00
2022-11-01T14:11:30.265Z,1840.00
2022-11-01T14:12:30.233Z,1444.00
2022-11-01T14:13:30.217Z,1292.00
2022-11-01T14:14:30.205Z,1144.00
2022-11-01T14:15:30.187Z,1124.00
2022-11-01T14:16:30.202Z,1112.00
2022-11-01T14:17:30.194Z,1064.00
2022-11-01T14:18:30.156Z,1100.00
2022-11-01T14:19:30.144Z,1152.00
2022-11-01T14:20:30.149Z,1160.00
2022-11-01T14:21:35.157Z,1068.00
2022-11-01T14:22:30.109Z,828.00
2022-11-01T14:23:30.099Z,764.00
2022-11-01T14:24:34.928Z,832.00
2022-11-01T14:25:31.112Z,892.00
2022-11-01T14:26:30.075Z,904.00
2022-11-01T14:27:30.064Z,896.00
2022-11-01T14:28:30.040Z,948.00
2022-11-01T14:29:30.030Z,940.00
2022-11-01T14:30:30.017Z,964.00
2022-11-01T14:31:30.027Z,964.00
2022-11-01T14:32:35.045Z,976.00
2022-11-01T14:33:29.983Z,960.00
2022-11-01T14:34:29.974Z,956.00
2022-11-01T14:35:29.961Z,980.00
2022-11-01T14:36:29.987Z,952.00
2022-11-01T14:37:29.953Z,960.00
2022-11-01T14:38:29.940Z,984.00
2022-11-01T14:39:29.919Z,992.00
2022-11-01T14:40:29.907Z,1024.00
2022-11-01T14:41:29.895Z,996.00
2022-11-01T14:42:29.896Z,988.00
2022-11-01T14:43:34.900Z,984.00
2022-11-01T14:44:29.928Z,980.00
2022-11-01T14:45:29.851Z,952.00
2022-11-01T14:46:29.846Z,904.00
2022-11-01T14:47:29.837Z,880.00
2022-11-01T14:48:29.878Z,844.00
2022-11-01T14:49:29.811Z,800.00
2022-11-01T14:50:29.801Z,784.00
2022-11-01T14:51:29.784Z,780.00
2022-11-01T14:52:29.802Z,756.00
2022-11-01T14:53:29.764Z,752.00
2022-11-01T14:54:34.772Z,720.00
2022-11-01T14:55:29.742Z,724.00
2022-11-01T14:56:29.753Z,736.00
2022-11-01T14:57:29.728Z,700.00
2022-11-01T14:58:29.715Z,688.00
2022-11-01T14:59:29.697Z,696.00
2022-11-01T15:00:29.693Z,660.00
2022-11-01T15:01:29.806Z,656.00
2022-11-01T15:02:29.733Z,644.00
2022-11-01T15:03:29.650Z,632.00
2022-11-01T15:04:29.668Z,620.00
2022-11-01T15:05:34.659Z,620.00
2022-11-01T15:06:29.623Z,608.00
2022-11-01T15:07:31.067Z,604.00
2022-11-01T15:08:29.610Z,588.00
2022-11-01T15:09:29.587Z,572.00
2022-11-01T15:10:29.577Z,556.00
2022-11-01T15:11:29.567Z,544.00
2022-11-01T15:12:29.562Z,532.00
2022-11-01T15:13:29.540Z,520.00
2022-11-01T15:14:29.530Z,512.00
2022-11-01T15:15:29.517Z,504.00
2022-11-01T15:16:34.540Z,492.00
2022-11-01T15:17:29.511Z,488.00
2022-11-01T15:18:29.494Z,476.00
2022-11-01T15:19:29.476Z,468.00
2022-11-01T15:20:29.483Z,448.00
2022-11-01T15:21:31.466Z,444.00
2022-11-01T15:22:29.447Z,428.00
2022-11-01T15:23:29.441Z,416.00
2022-11-01T15:24:29.421Z,408.00
2022-11-01T15:25:29.410Z,392.00
2022-11-01T15:26:29.397Z,384.00
2022-11-01T15:27:34.417Z,376.00
2022-11-01T15:28:29.381Z,376.00
2022-11-01T15:29:29.368Z,352.00
2022-11-01T15:30:29.354Z,344.00
2022-11-01T15:31:29.345Z,332.00
2022-11-01T15:32:29.338Z,320.00
2022-11-01T15:33:29.346Z,308.00
2022-11-01T15:34:29.311Z,304.00
2022-11-01T15:35:29.297Z,292.00
2022-11-01T15:36:29.310Z,280.00
2022-11-01T15:37:29.274Z,272.00
2022-11-01T15:38:34.300Z,260.00
2022-11-01T15:39:29.269Z,252.00
2022-11-01T15:40:29.248Z,240.00
2022-11-01T15:41:29.237Z,228.00
2022-11-01T15:42:29.233Z,220.00
2022-11-01T15:43:29.208Z,208.00
2022-11-01T15:44:29.198Z,196.00
2022-11-01T15:45:29.195Z,184.00
2022-11-01T15:46:29.179Z,172.00
2022-11-01T15:47:29.188Z,160.00
2022-11-01T15:48:29.158Z,156.00
2022-11-01T15:49:34.213Z,148.00
2022-11-01T15:50:29.140Z,140.00
2022-11-01T15:51:29.122Z,136.00
2022-11-01T15:52:29.146Z,124.00
2022-11-01T15:53:29.124Z,120.00
2022-11-01T15:54:32.003Z,116.00
2022-11-01T15:55:29.076Z,104.00
2022-11-01T15:56:29.079Z,100.00
2022-11-01T15:57:29.063Z,92.00
2022-11-01T15:58:29.055Z,84.00
2022-11-01T15:59:29.032Z,80.00
2022-11-01T16:00:34.071Z,72.00
2022-11-01T16:01:29.186Z,68.00
2022-11-01T16:02:29.123Z,60.00
2022-11-01T16:03:29.001Z,56.00
2022-11-01T16:04:28.981Z,52.00
2022-11-01T16:05:28.963Z,48.00
2022-11-01T16:06:28.959Z,44.00
2022-11-01T16:07:28.962Z,36.00
2022-11-01T16:08:28.953Z,36.00
2022-11-01T16:09:28.920Z,28.00
2022-11-01T16:10:28.910Z,24.00
2022-11-01T16:11:33.922Z,24.00
2022-11-01T16:12:28.918Z,20.00
2022-11-01T16:13:28.881Z,16.00
2022-11-01T16:14:30.630Z,16.00
2022-11-01T16:15:28.851Z,12.00
2022-11-01T16:16:28.843Z,12.00
2022-11-01T16:17:28.842Z,12.00
2022-11-01T16:18:28.829Z,8.00
2022-11-01T16:19:28.810Z,8.00
2022-11-01T16:20:28.807Z,4.00
2022-11-01T16:21:28.785Z,4.00
2022-11-01T16:22:33.814Z,4.00
2022-11-01T16:23:28.767Z,4.00
2022-11-01T16:24:28.776Z,4.00
2022-11-01T16:25:28.740Z,0.00
2022-11-01T16:26:28.733Z,4.00
2022-11-01T16:27:28.735Z,0.00
2022-11-01T16:28:28.709Z,4.00
2022-11-01T16:29:28.696Z,4.00
2022-11-01T16:30:28.687Z,0.00
2022-11-01T16:31:28.675Z,0.00
2022-11-01T16:32:28.665Z,0.00
2022-11-01T16:33:33.683Z,0.00
2022-11-01T16:34:28.667Z,0.00
2022-11-01T16:35:28.632Z,0.00
2022-11-01T16:36:28.626Z,0.00
2022-11-01T16:37:28.606Z,0.00
2022-11-01T16:38:29.627Z,0.00
2022-11-01T16:39:28.586Z,0.00
2022-11-01T16:40:28.596Z,0.00
2022-11-01T16:41:28.564Z,0.00
2022-11-01T16:42:28.555Z,0.00
2022-11-01T16:43:28.549Z,0.00
2022-11-01T16:44:33.552Z,0.00
2022-11-01T16:45:28.517Z,0.00
2022-11-01T16:46:28.509Z,0.00
2022-11-01T16:47:28.498Z,0.00
2022-11-01T16:48:28.497Z,0.00
2022-11-01T16:49:28.471Z,0.00
2022-11-01T16:50:28.465Z,0.00
2022-11-01T16:51:28.580Z,0.00
2022-11-01T16:52:28.442Z,0.00
2022-11-01T16:53:28.448Z,0.00
2022-11-01T16:54:28.425Z,0.00
2022-11-01T16:55:34.935Z,0.00
2022-11-01T16:56:36.505Z,0.00
2022-11-01T16:57:29.384Z,0.00
2022-11-01T16:58:28.382Z,0.00
2022-11-01T16:59:28.359Z,0.00
2022-11-01T17:00:28.355Z,0.00
2022-11-01T17:01:34.179Z,0.00
2022-11-01T17:02:29.456Z,0.00
2022-11-01T17:03:28.325Z,0.00
2022-11-01T17:04:28.305Z,0.00
2022-11-01T17:05:28.298Z,0.00
2022-11-01T17:06:38.655Z,0.00
2022-11-01T17:07:29.270Z,0.00
2022-11-01T17:08:28.276Z,0.00
2022-11-01T17:09:28.248Z,0.00
2022-11-01T17:10:28.263Z,0.00
2022-11-01T17:11:28.245Z,0.00
2022-11-01T17:12:28.219Z,0.00
2022-11-01T17:13:28.217Z,0.00
2022-11-01T17:14:28.228Z,0.00
2022-11-01T17:15:28.199Z,0.00
2022-11-01T17:16:28.185Z,0.00
2022-11-01T17:17:33.269Z,0.00
2022-11-01T17:18:28.166Z,0.00
2022-11-01T17:19:28.145Z,0.00
2022-11-01T17:20:28.127Z,0.00
2022-11-01T17:21:28.116Z,0.00
2022-11-01T17:22:28.119Z,0.00
2022-11-01T17:23:28.105Z,0.00
2022-11-01T17:24:28.085Z,0.00
2022-11-01T17:25:28.069Z,0.00
2022-11-01T17:26:28.117Z,0.00
2022-11-01T17:27:28.069Z,0.00
2022-11-01T17:28:33.072Z,0.00
2022-11-01T17:29:28.029Z,0.00
2022-11-01T17:30:28.020Z,0.00